< < Back
Terminal Aerodrome Forecast


Current Version              Previous Versions:   1  2  3  4  5  6  7  8  9  

Terminal Aerodrome Forecast

023
FTUS42 KMLB 291729
TAFMCO
TAF
KMCO 291729Z 2918/3018 VRB04KT P6SM SCT050
     FM292100 08008KT P6SM VCSH BKN060
     FM300100 11003KT P6SM FEW080 SCT250
     FM301400 14005KT P6SM SCT025=

Latest METAR

209
SAUS70 KWBC 300300 RRE
MTRMCO
METAR KMCO 300253Z VRB05KT 10SM FEW046 BKN200 24/19 A2999 RMK AO2 SLP152
60000 T02440194 51015


USA.gov is the U.S. government's official web portal to all federal, state and local government web resources and services.